createdAt,value
2022-08-05T00:00:06.680Z,95924.34
2022-08-05T00:05:10.103Z,95928.03
2022-08-05T00:10:34.372Z,95931.19
2022-08-05T00:15:55.201Z,95918.66
2022-08-05T00:21:00.984Z,95921.97
2022-08-05T00:26:06.050Z,95916.41
2022-08-05T00:31:09.453Z,95913.44
2022-08-05T00:36:16.048Z,95918.03
2022-08-05T00:41:52.249Z,95912.88
2022-08-05T00:47:01.990Z,95905.47
2022-08-05T00:52:07.319Z,95913.59
2022-08-05T00:57:11.531Z,95919.72
2022-08-05T01:02:14.500Z,95920.81
2022-08-05T01:07:19.510Z,95916.25
2022-08-05T01:12:29.772Z,95912.31
2022-08-05T01:17:39.855Z,95914.88
2022-08-05T01:22:57.340Z,95907.28
2022-08-05T01:28:18.889Z,95919.50
2022-08-05T01:33:35.413Z,95909.53
2022-08-05T01:38:39.734Z,95901.19
2022-08-05T01:43:44.755Z,95902.22
2022-08-05T01:48:54.288Z,95897.38
2022-08-05T01:53:59.130Z,95908.63
2022-08-05T01:59:10.833Z,95915.06
2022-08-05T02:04:17.647Z,95906.72
2022-08-05T02:09:20.910Z,95900.94
2022-08-05T02:14:31.955Z,95900.22
2022-08-05T02:19:42.682Z,95899.66
2022-08-05T02:24:53.417Z,95898.03
2022-08-05T02:30:00.731Z,95893.19
2022-08-05T02:35:13.674Z,95899.91
2022-08-05T02:40:18.461Z,95905.69
2022-08-05T02:45:24.379Z,95907.06
2022-08-05T02:50:29.622Z,95903.78
2022-08-05T02:55:54.376Z,95909.72
2022-08-05T03:01:00.369Z,95903.75
2022-08-05T03:06:56.395Z,95913.69
2022-08-05T03:11:55.462Z,95904.56
2022-08-05T03:16:53.461Z,95899.50
2022-08-05T03:21:56.410Z,95895.38
2022-08-05T03:27:01.461Z,95897.91
2022-08-05T03:32:07.923Z,95891.13
2022-08-05T03:37:11.777Z,95891.94
2022-08-05T03:42:17.201Z,95893.78
2022-08-05T03:47:21.670Z,95901.63
2022-08-05T03:52:38.610Z,95894.09
2022-08-05T03:57:54.673Z,95896.31
2022-08-05T04:03:02.840Z,95905.03
2022-08-05T04:08:14.549Z,95895.75
2022-08-05T04:13:51.351Z,95906.06
2022-08-05T04:18:58.086Z,95901.81
2022-08-05T04:24:06.776Z,95915.47
2022-08-05T04:29:11.762Z,95914.06
2022-08-05T04:34:31.696Z,95910.50
2022-08-05T04:39:37.276Z,95920.53
2022-08-05T04:44:40.168Z,95917.28
2022-08-05T04:50:02.067Z,95921.28
2022-08-05T04:55:14.716Z,95924.44
2022-08-05T05:00:18.641Z,95933.47
2022-08-05T05:05:28.715Z,95936.56
2022-08-05T05:10:33.847Z,95948.44
2022-08-05T05:15:56.194Z,95939.06
2022-08-05T05:21:02.387Z,95935.28
2022-08-05T05:26:06.353Z,95946.44
2022-08-05T05:31:09.182Z,95942.72
2022-08-05T05:36:14.642Z,95957.66
2022-08-05T05:41:17.724Z,95958.03
2022-08-05T05:46:21.766Z,95968.09
2022-08-05T05:51:28.090Z,95974.69
2022-08-05T05:56:34.828Z,95951.50
2022-08-05T06:01:41.334Z,95966.22
2022-08-05T06:07:02.126Z,95963.06
2022-08-05T06:12:05.715Z,95964.47
2022-08-05T06:17:24.523Z,95974.75
2022-08-05T06:22:30.614Z,95970.28
2022-08-05T06:28:10.840Z,95971.59
2022-08-05T06:32:59.871Z,95971.25
2022-08-05T06:38:11.190Z,95971.00
2022-08-05T06:43:57.478Z,95973.44
2022-08-05T06:48:54.660Z,95973.31
2022-08-05T06:54:04.901Z,95987.25
2022-08-05T06:59:09.919Z,95986.31
2022-08-05T07:04:14.864Z,95995.38
2022-08-05T07:09:24.936Z,95993.06
2022-08-05T07:14:45.250Z,95991.59
2022-08-05T07:20:31.312Z,95989.16
2022-08-05T07:25:54.433Z,96000.88
2022-08-05T07:30:39.179Z,96002.75
2022-08-05T07:36:05.058Z,96006.63
2022-08-05T07:42:07.098Z,95999.09
2022-08-05T07:46:33.767Z,96001.41
2022-08-05T07:51:48.635Z,96006.66
2022-08-05T07:57:02.072Z,96001.16
2022-08-05T08:02:18.332Z,96002.41
2022-08-05T08:07:22.747Z,95995.75
2022-08-05T08:12:39.387Z,95998.22
2022-08-05T08:17:52.441Z,96002.81
2022-08-05T08:22:59.076Z,96008.72
2022-08-05T08:28:07.382Z,96002.53
2022-08-05T08:33:21.432Z,96005.53
2022-08-05T08:38:35.308Z,96006.84
2022-08-05T08:45:19.497Z,96003.06
2022-08-05T08:50:22.603Z,96010.59
2022-08-05T08:54:29.342Z,96002.28
2022-08-05T08:59:34.190Z,96005.78
2022-08-05T09:04:58.178Z,96007.41
2022-08-05T09:10:01.584Z,96009.00
2022-08-05T09:15:07.482Z,96004.72
2022-08-05T09:20:12.770Z,96005.78
2022-08-05T09:26:03.111Z,96000.94
2022-08-05T09:30:56.288Z,96001.69
2022-08-05T09:36:03.681Z,95991.44
2022-08-05T09:41:10.838Z,95991.69
2022-08-05T09:46:28.580Z,95985.22
2022-08-05T09:51:38.075Z,95984.63
2022-08-05T09:56:52.320Z,95989.19
2022-08-05T10:01:58.331Z,95972.25
2022-08-05T10:07:06.093Z,95970.81
2022-08-05T10:12:31.582Z,95967.22
2022-08-05T10:17:40.722Z,95957.97
2022-08-05T10:22:48.676Z,95962.06
2022-08-05T10:28:16.645Z,95955.00
2022-08-05T10:33:18.938Z,95947.13
2022-08-05T10:38:22.854Z,95931.13
2022-08-05T10:43:42.132Z,95925.81
2022-08-05T10:48:57.450Z,95917.66
2022-08-05T10:54:23.234Z,95923.91
2022-08-05T11:00:04.097Z,95916.81
2022-08-05T11:04:57.265Z,95894.06
2022-08-05T11:10:04.101Z,95902.00
2022-08-05T11:16:01.031Z,95890.53
2022-08-05T11:20:51.323Z,95893.34
2022-08-05T11:26:09.307Z,95893.28
2022-08-05T11:31:56.418Z,95885.84
2022-08-05T11:37:00.870Z,95881.03
2022-08-05T11:42:10.532Z,95873.81
2022-08-05T11:47:49.963Z,95868.09
2022-08-05T11:52:52.029Z,95868.03
2022-08-05T11:58:10.087Z,95863.28
2022-08-05T12:03:28.448Z,95859.19
2022-08-05T12:08:47.960Z,95859.38
2022-08-05T12:13:55.843Z,95845.31
2022-08-05T12:19:01.751Z,95842.97
2022-08-05T12:24:08.105Z,95840.38
2022-08-05T12:29:16.368Z,95827.66
2022-08-05T12:34:23.747Z,95826.69
2022-08-05T12:39:34.447Z,95824.84
2022-08-05T12:44:41.591Z,95821.94
2022-08-05T12:50:03.355Z,95812.34
2022-08-05T12:55:22.276Z,95814.31
2022-08-05T13:02:01.592Z,95804.59
2022-08-05T13:05:52.773Z,95802.59
2022-08-05T13:11:01.956Z,95794.38
2022-08-05T13:16:12.515Z,95790.06
2022-08-05T13:21:18.363Z,95795.16
2022-08-05T13:26:30.137Z,95783.16
2022-08-05T13:31:33.825Z,95792.97
2022-08-05T13:36:56.416Z,95787.03
2022-08-05T13:42:00.598Z,95803.38
2022-08-05T13:47:08.847Z,95786.06
2022-08-05T13:52:13.005Z,95784.25
2022-08-05T13:57:17.729Z,95793.88
2022-08-05T14:02:26.495Z,95793.28
2022-08-05T14:08:01.115Z,95795.72
2022-08-05T14:12:59.640Z,95804.50
2022-08-05T14:18:03.861Z,95808.41
2022-08-05T14:23:06.810Z,95819.53
2022-08-05T14:28:25.945Z,95806.50
2022-08-05T14:33:56.264Z,95802.81
2022-08-05T14:38:54.410Z,95802.78
2022-08-05T14:44:09.755Z,95802.97
2022-08-05T14:49:21.501Z,95809.25
2022-08-05T14:54:27.575Z,95801.44
2022-08-05T14:59:35.655Z,95796.22
2022-08-05T15:04:38.837Z,95769.03
2022-08-05T15:09:51.198Z,95785.97
2022-08-05T15:14:58.754Z,95818.25
2022-08-05T15:20:01.582Z,95805.69
2022-08-05T15:25:11.425Z,95832.22
2022-08-05T15:30:16.717Z,95850.88
2022-08-05T15:35:21.885Z,95852.00
2022-08-05T15:40:58.489Z,95864.16
2022-08-05T15:46:00.487Z,95865.69
2022-08-05T15:51:05.872Z,95875.50
2022-08-05T15:56:14.175Z,95878.66
2022-08-05T16:01:20.173Z,95856.53
2022-08-05T16:06:32.094Z,95853.94
2022-08-05T16:11:39.958Z,95855.25
2022-08-05T16:16:48.465Z,95849.41
2022-08-05T16:22:00.090Z,95857.22
2022-08-05T16:27:04.959Z,95871.13
2022-08-05T16:32:11.641Z,95889.25
2022-08-05T16:38:02.364Z,95880.59
2022-08-05T16:42:37.329Z,95883.28
2022-08-05T16:47:53.487Z,95885.00
2022-08-05T16:53:12.559Z,95901.94
2022-08-05T16:58:25.602Z,95907.59
2022-08-05T17:03:30.630Z,95904.25
2022-08-05T17:08:52.435Z,95921.09
2022-08-05T17:14:05.381Z,95933.19
2022-08-05T17:19:10.831Z,95934.69
2022-08-05T17:24:29.166Z,95947.94
2022-08-05T17:29:41.307Z,95964.69
2022-08-05T17:34:48.081Z,95995.44
2022-08-05T17:39:51.512Z,96015.91
2022-08-05T17:44:58.806Z,96018.00
2022-08-05T17:50:10.598Z,96027.28
2022-08-05T17:55:14.015Z,96035.38
2022-08-05T18:00:18.749Z,96036.69
2022-08-05T18:05:23.291Z,96046.84
2022-08-05T18:10:26.167Z,96075.03
2022-08-05T18:15:31.215Z,96089.47
2022-08-05T18:20:39.318Z,96093.19
2022-08-05T18:25:45.230Z,96096.56
2022-08-05T18:30:51.291Z,96119.34
2022-08-05T18:36:03.944Z,96137.06
2022-08-05T18:41:55.343Z,96133.97
2022-08-05T18:46:31.510Z,96148.53
2022-08-05T18:52:04.278Z,96159.91
2022-08-05T18:57:14.983Z,96174.59
2022-08-05T19:02:27.079Z,96186.28
2022-08-05T19:07:45.174Z,96217.13
2022-08-05T19:12:49.728Z,96235.88
2022-08-05T19:18:08.642Z,96241.78
2022-08-05T19:24:05.881Z,96255.06
2022-08-05T19:28:41.590Z,96257.66
2022-08-05T19:33:48.493Z,96260.78
2022-08-05T19:39:01.921Z,96267.09
2022-08-05T19:44:12.923Z,96275.50
2022-08-05T19:49:17.789Z,96286.69
2022-08-05T19:54:29.492Z,96272.75
2022-08-05T19:59:56.456Z,96305.66
2022-08-05T20:04:58.677Z,96316.88
2022-08-05T20:10:11.424Z,96310.19
2022-08-05T20:15:23.421Z,96331.47
2022-08-05T20:20:44.202Z,96333.94
2022-08-05T20:25:49.220Z,96338.63
2022-08-05T20:30:56.271Z,96341.94
2022-08-05T20:35:59.966Z,96350.63
2022-08-05T20:41:04.674Z,96340.34
2022-08-05T20:46:18.428Z,96348.56
2022-08-05T20:51:28.139Z,96352.25
2022-08-05T20:56:40.196Z,96352.19
2022-08-05T21:01:45.730Z,96355.75
2022-08-05T21:06:48.937Z,96358.69
2022-08-05T21:12:09.282Z,96345.81
2022-08-05T21:17:14.277Z,96348.66
2022-08-05T21:22:18.536Z,96355.84
2022-08-05T21:27:28.015Z,96354.97
2022-08-05T21:32:41.722Z,96358.00
2022-08-05T21:37:47.124Z,96354.59
2022-08-05T21:42:59.252Z,96334.19
2022-08-05T21:48:06.552Z,96336.72
2022-08-05T21:53:16.663Z,96329.94
2022-08-05T21:58:24.935Z,96331.97
2022-08-05T22:03:52.034Z,96345.16
2022-08-05T22:08:56.062Z,96348.16
2022-08-05T22:14:32.517Z,96335.91
2022-08-05T22:20:03.033Z,96338.19
2022-08-05T22:25:04.590Z,96346.84
2022-08-05T22:30:14.485Z,96358.97
2022-08-05T22:35:20.087Z,96352.69
2022-08-05T22:40:26.908Z,96350.78
2022-08-05T22:45:34.930Z,96346.31
2022-08-05T22:50:40.031Z,96348.84
2022-08-05T22:55:56.930Z,96345.97
2022-08-05T23:01:03.472Z,96341.69
2022-08-05T23:06:09.458Z,96335.91
2022-08-05T23:11:13.057Z,96351.34
2022-08-05T23:16:26.028Z,96351.81
2022-08-05T23:21:42.832Z,96346.97
2022-08-05T23:26:50.790Z,96344.94
2022-08-05T23:31:55.052Z,96347.03
2022-08-05T23:36:59.258Z,96340.97
2022-08-05T23:42:03.627Z,96346.31
2022-08-05T23:47:14.570Z,96350.88
2022-08-05T23:52:29.248Z,96349.44
2022-08-05T23:57:33.746Z,96351.72
